createdAt,value
2023-05-20T00:01:59.666Z,101257.00
2023-05-20T00:04:28.061Z,101254.19
2023-05-20T00:06:56.064Z,101258.84
2023-05-20T00:09:23.975Z,101260.50
2023-05-20T00:11:52.258Z,101240.22
2023-05-20T00:14:20.231Z,101256.47
2023-05-20T00:16:48.233Z,101258.53
2023-05-20T00:19:17.042Z,101257.94
2023-05-20T00:21:45.009Z,101253.69
2023-05-20T00:24:12.998Z,101255.59
2023-05-20T00:26:41.486Z,101254.25
2023-05-20T00:29:09.480Z,101254.41
2023-05-20T00:31:37.668Z,101253.87
2023-05-20T00:34:06.798Z,101253.87
2023-05-20T00:36:35.833Z,101249.06
2023-05-20T00:39:04.039Z,101253.78
2023-05-20T00:41:33.035Z,101253.16
2023-05-20T00:44:01.070Z,101245.84
2023-05-20T00:46:30.108Z,101253.63
2023-05-20T00:48:59.053Z,101253.78
2023-05-20T00:51:27.276Z,101246.69
2023-05-20T00:53:56.531Z,101251.41
2023-05-20T00:56:25.655Z,101252.94
2023-05-20T00:58:53.860Z,101245.03
2023-05-20T01:01:22.026Z,101254.78
2023-05-20T01:03:52.129Z,101245.84
2023-05-20T01:06:20.236Z,101238.16
2023-05-20T01:08:48.531Z,101245.19
2023-05-20T01:11:25.362Z,101250.87
2023-05-20T01:13:58.543Z,101239.09
2023-05-20T01:16:30.093Z,101247.63
2023-05-20T01:18:59.645Z,101245.56
2023-05-20T01:21:31.645Z,101256.00
2023-05-20T01:23:59.682Z,101243.19
2023-05-20T01:26:28.512Z,101246.16
2023-05-20T01:28:58.275Z,101255.19
2023-05-20T01:31:33.534Z,101254.59
2023-05-20T01:34:02.790Z,101254.19
2023-05-20T01:36:32.820Z,101251.38
2023-05-20T01:39:03.520Z,101254.28
2023-05-20T01:41:34.868Z,101246.69
2023-05-20T01:44:04.195Z,101243.09
2023-05-20T01:46:35.292Z,101248.78
2023-05-20T01:49:03.813Z,101261.13
2023-05-20T01:51:33.966Z,101246.63
2023-05-20T01:54:02.048Z,101248.00
2023-05-20T01:56:31.372Z,101255.50
2023-05-20T01:59:00.209Z,101251.91
2023-05-20T02:01:28.485Z,101251.69
2023-05-20T02:03:56.910Z,101251.09
2023-05-20T02:06:24.981Z,101244.13
2023-05-20T02:08:53.065Z,101247.84
2023-05-20T02:11:22.401Z,101225.53
2023-05-20T02:13:51.922Z,101237.09
2023-05-20T02:16:20.117Z,101251.53
2023-05-20T02:18:48.744Z,101247.69
2023-05-20T02:21:18.480Z,101243.34
2023-05-20T02:23:46.909Z,101245.16
2023-05-20T02:26:14.920Z,101247.84
2023-05-20T02:28:47.696Z,101245.69
2023-05-20T02:31:15.774Z,101237.88
2023-05-20T02:33:45.364Z,101233.22
2023-05-20T02:36:13.619Z,101218.12
2023-05-20T02:38:41.849Z,101231.00
2023-05-20T02:41:11.717Z,101230.91
2023-05-20T02:43:41.042Z,101231.16
2023-05-20T02:46:09.203Z,101231.41
2023-05-20T02:48:38.285Z,101232.63
2023-05-20T02:51:06.648Z,101227.56
2023-05-20T02:53:34.841Z,101236.87
2023-05-20T02:56:06.401Z,101237.13
2023-05-20T02:58:35.964Z,101232.69
2023-05-20T03:01:04.557Z,101226.13
2023-05-20T03:03:33.963Z,101227.22
2023-05-20T03:06:01.966Z,101234.94
2023-05-20T03:08:30.426Z,101240.09
2023-05-20T03:10:59.217Z,101225.91
2023-05-20T03:13:28.578Z,101237.50
2023-05-20T03:16:01.759Z,101239.78
2023-05-20T03:18:30.054Z,101232.91
2023-05-20T03:20:58.724Z,101225.28
2023-05-20T03:23:27.602Z,101229.75
2023-05-20T03:25:55.950Z,101235.12
2023-05-20T03:28:24.447Z,101232.56
2023-05-20T03:30:52.497Z,101228.09
2023-05-20T03:33:20.963Z,101232.94
2023-05-20T03:35:49.283Z,101232.88
2023-05-20T03:38:17.479Z,101242.59
2023-05-20T03:40:45.711Z,101208.88
2023-05-20T03:43:14.078Z,101231.75
2023-05-20T03:45:42.288Z,101236.94
2023-05-20T03:48:10.347Z,101230.91
2023-05-20T03:50:39.235Z,101229.81
2023-05-20T03:53:07.561Z,101228.38
2023-05-20T03:55:37.010Z,101234.59
2023-05-20T03:58:08.490Z,101234.47
2023-05-20T04:00:36.661Z,101225.91
2023-05-20T04:03:06.211Z,101228.50
2023-05-20T04:05:35.510Z,101231.16
2023-05-20T04:08:05.366Z,101227.31
2023-05-20T04:10:34.334Z,101225.16
2023-05-20T04:13:02.377Z,101227.63
2023-05-20T04:15:31.180Z,101227.88
2023-05-20T04:18:01.691Z,101223.78
2023-05-20T04:20:29.796Z,101226.97
2023-05-20T04:22:58.492Z,101216.56
2023-05-20T04:25:27.748Z,101222.12
2023-05-20T04:27:58.014Z,101217.88
2023-05-20T04:30:26.538Z,101215.81
2023-05-20T04:32:55.247Z,101204.94
2023-05-20T04:35:26.378Z,101213.97
2023-05-20T04:37:56.479Z,101201.31
2023-05-20T04:40:24.496Z,101209.03
2023-05-20T04:42:53.710Z,101217.59
2023-05-20T04:45:23.637Z,101213.84
2023-05-20T04:47:53.643Z,101215.25
2023-05-20T04:50:22.352Z,101214.59
2023-05-20T04:52:51.033Z,101207.56
2023-05-20T04:55:20.190Z,101210.22
2023-05-20T04:57:49.537Z,101213.00
2023-05-20T05:00:18.185Z,101210.00
2023-05-20T05:02:46.370Z,101210.37
2023-05-20T05:05:15.044Z,101201.38
2023-05-20T05:07:43.132Z,101194.97
2023-05-20T05:10:12.907Z,101203.81
2023-05-20T05:12:41.228Z,101192.59
2023-05-20T05:15:09.556Z,101204.66
2023-05-20T05:17:37.407Z,101184.91
2023-05-20T05:20:06.693Z,101188.97
2023-05-20T05:22:37.311Z,101179.03
2023-05-20T05:25:06.949Z,101190.34
2023-05-20T05:27:36.201Z,101183.88
2023-05-20T05:30:06.630Z,101182.06
2023-05-20T05:32:37.139Z,101179.41
2023-05-20T05:35:08.035Z,101186.19
2023-05-20T05:37:36.934Z,101178.25
2023-05-20T05:40:07.607Z,101169.75
2023-05-20T05:42:35.882Z,101180.62
2023-05-20T05:45:04.617Z,101183.44
2023-05-20T05:47:34.503Z,101181.97
2023-05-20T05:50:02.478Z,101183.00
2023-05-20T05:52:32.806Z,101166.75
2023-05-20T05:55:03.585Z,101171.38
2023-05-20T05:57:33.288Z,101165.72
2023-05-20T06:00:02.241Z,101174.12
2023-05-20T06:02:36.598Z,101169.00
2023-05-20T06:05:05.537Z,101168.38
2023-05-20T06:07:33.589Z,101170.91
2023-05-20T06:10:02.273Z,101166.81
2023-05-20T06:12:31.387Z,101163.06
2023-05-20T06:15:00.118Z,101163.09
2023-05-20T06:17:28.186Z,101166.22
2023-05-20T06:19:56.722Z,101158.91
2023-05-20T06:22:25.092Z,101166.13
2023-05-20T06:24:55.304Z,101163.31
2023-05-20T06:27:23.625Z,101165.75
2023-05-20T06:29:51.551Z,101174.84
2023-05-20T06:32:19.714Z,101167.38
2023-05-20T06:34:48.291Z,101185.31
2023-05-20T06:37:16.417Z,101170.91
2023-05-20T06:39:44.412Z,101169.37
2023-05-20T06:42:13.106Z,101186.44
2023-05-20T06:44:44.929Z,101181.38
2023-05-20T06:47:18.696Z,101179.75
2023-05-20T06:49:47.766Z,101184.69
2023-05-20T06:52:17.083Z,101178.44
2023-05-20T06:54:46.351Z,101174.22
2023-05-20T06:57:14.745Z,101176.63
2023-05-20T06:59:43.110Z,101171.91
2023-05-20T07:02:12.561Z,101173.66
2023-05-20T07:04:40.777Z,101177.47
2023-05-20T07:07:09.626Z,101174.44
2023-05-20T07:09:37.904Z,101161.19
2023-05-20T07:12:06.900Z,101154.19
2023-05-20T07:14:35.634Z,101158.19
2023-05-20T07:17:04.796Z,101155.78
2023-05-20T07:19:34.201Z,101156.03
2023-05-20T07:22:03.365Z,101158.75
2023-05-20T07:24:32.510Z,101157.38
2023-05-20T07:27:00.773Z,101154.59
2023-05-20T07:29:29.416Z,101164.25
2023-05-20T07:31:58.185Z,101151.97
2023-05-20T07:34:26.431Z,101156.88
2023-05-20T07:36:55.476Z,101154.00
2023-05-20T07:39:24.219Z,101142.53
2023-05-20T07:41:52.440Z,101141.00
2023-05-20T07:44:22.636Z,101146.25
2023-05-20T07:46:51.137Z,101150.00
2023-05-20T07:49:21.628Z,101144.88
2023-05-20T07:51:50.176Z,101152.78
2023-05-20T07:54:18.226Z,101147.47
2023-05-20T07:56:47.107Z,101148.94
2023-05-20T07:59:15.575Z,101156.50
2023-05-20T08:01:44.070Z,101162.25
2023-05-20T08:04:13.085Z,101160.72
2023-05-20T08:06:41.693Z,101169.66
2023-05-20T08:09:10.948Z,101157.94
2023-05-20T08:11:39.596Z,101160.84
2023-05-20T08:14:07.599Z,101160.97
2023-05-20T08:16:37.967Z,101153.81
2023-05-20T08:19:06.676Z,101156.72
2023-05-20T08:21:35.748Z,101150.09
2023-05-20T08:24:04.909Z,101136.16
2023-05-20T08:26:33.692Z,101132.44
2023-05-20T08:29:02.015Z,101138.03
2023-05-20T08:31:31.212Z,101126.34
2023-05-20T08:34:00.954Z,101132.94
2023-05-20T08:36:29.503Z,101141.78
2023-05-20T08:38:57.929Z,101138.97
2023-05-20T08:41:27.162Z,101132.25
2023-05-20T08:43:55.721Z,101138.41
2023-05-20T08:46:24.215Z,101136.91
2023-05-20T08:48:53.203Z,101121.06
2023-05-20T08:51:24.100Z,101122.63
2023-05-20T08:53:52.638Z,101122.00
2023-05-20T08:56:23.408Z,101135.00
2023-05-20T08:58:52.464Z,101129.88
2023-05-20T09:01:26.154Z,101128.78
2023-05-20T09:03:54.426Z,101129.44
2023-05-20T09:06:22.838Z,101124.16
2023-05-20T09:08:52.283Z,101136.88
2023-05-20T09:11:22.643Z,101139.72
2023-05-20T09:13:51.937Z,101135.31
2023-05-20T09:16:20.322Z,101137.84
2023-05-20T09:18:48.727Z,101154.47
2023-05-20T09:21:17.320Z,101130.00
2023-05-20T09:23:49.618Z,101126.13
2023-05-20T09:26:19.009Z,101125.88
2023-05-20T09:28:47.457Z,101127.69
2023-05-20T09:31:15.862Z,101138.41
2023-05-20T09:33:47.517Z,101137.84
2023-05-20T09:36:16.828Z,101144.00
2023-05-20T09:38:47.932Z,101145.72
2023-05-20T09:41:15.946Z,101135.69
2023-05-20T09:43:45.175Z,101138.84
2023-05-20T09:46:14.581Z,101140.72
2023-05-20T09:48:43.605Z,101138.44
2023-05-20T09:51:13.702Z,101153.25
2023-05-20T09:53:43.448Z,101151.97
2023-05-20T09:56:11.845Z,101159.25
2023-05-20T09:58:42.902Z,101162.25
2023-05-20T10:01:11.424Z,101161.91
2023-05-20T10:03:43.248Z,101162.78
2023-05-20T10:06:30.583Z,101149.19
2023-05-20T10:09:14.924Z,101157.31
2023-05-20T10:11:58.892Z,101153.78
2023-05-20T10:14:36.611Z,101157.19
2023-05-20T10:17:10.968Z,101159.84
2023-05-20T10:19:39.586Z,101168.78
2023-05-20T10:22:12.423Z,101175.06
2023-05-20T10:24:45.120Z,101171.78
2023-05-20T10:27:15.879Z,101158.19
2023-05-20T10:29:54.513Z,101160.88
2023-05-20T10:32:27.945Z,101166.03
2023-05-20T10:35:01.417Z,101168.38
2023-05-20T10:37:43.858Z,101175.31
2023-05-20T10:40:14.670Z,101175.34
2023-05-20T10:42:43.843Z,101164.78
2023-05-20T10:45:12.903Z,101173.72
2023-05-20T10:47:59.669Z,101175.53
2023-05-20T10:50:39.138Z,101163.69
2023-05-20T10:53:21.641Z,101178.75
2023-05-20T10:55:58.170Z,101179.25
2023-05-20T10:58:26.239Z,101188.84
2023-05-20T11:00:56.641Z,101181.25
2023-05-20T11:03:26.400Z,101188.06
2023-05-20T11:05:54.798Z,101179.69
2023-05-20T11:08:29.084Z,101174.16
2023-05-20T11:10:58.655Z,101191.72
2023-05-20T11:13:27.464Z,101195.78
2023-05-20T11:15:56.122Z,101184.28
2023-05-20T11:18:32.472Z,101196.34
2023-05-20T11:21:01.789Z,101191.97
2023-05-20T11:23:31.086Z,101196.66
2023-05-20T11:25:59.471Z,101189.44
2023-05-20T11:28:27.724Z,101190.78
2023-05-20T11:30:56.465Z,101184.59
2023-05-20T11:33:27.951Z,101194.88
2023-05-20T11:35:58.151Z,101194.38
2023-05-20T11:38:26.342Z,101182.59
2023-05-20T11:40:56.501Z,101193.41
2023-05-20T11:43:25.727Z,101191.97
2023-05-20T11:46:00.337Z,101183.78
2023-05-20T11:48:29.136Z,101186.44
2023-05-20T11:50:58.886Z,101189.72
2023-05-20T11:53:29.657Z,101191.97
2023-05-20T11:56:00.880Z,101192.38
2023-05-20T11:58:35.818Z,101189.34
2023-05-20T12:01:17.990Z,101183.13
2023-05-20T12:03:51.274Z,101195.44
2023-05-20T12:06:20.302Z,101182.16
2023-05-20T12:08:48.393Z,101193.03
2023-05-20T12:11:16.796Z,101192.19
2023-05-20T12:13:45.063Z,101189.31
2023-05-20T12:16:13.230Z,101191.28
2023-05-20T12:18:41.824Z,101193.91
2023-05-20T12:21:15.839Z,101201.00
2023-05-20T12:26:30.505Z,101191.22
2023-05-20T12:28:58.883Z,101197.28
2023-05-20T12:31:27.241Z,101196.28
2023-05-20T12:33:55.392Z,101185.34
2023-05-20T12:36:23.751Z,101193.63
2023-05-20T12:38:51.697Z,101190.66
2023-05-20T12:41:19.676Z,101190.16
2023-05-20T12:43:47.911Z,101191.00
2023-05-20T12:46:16.184Z,101187.78
2023-05-20T12:48:44.177Z,101182.53
2023-05-20T12:51:12.485Z,101190.34
2023-05-20T12:53:40.355Z,101181.00
2023-05-20T12:56:08.493Z,101185.69
2023-05-20T12:58:36.862Z,101180.22
2023-05-20T13:01:17.240Z,101181.41
2023-05-20T13:03:45.953Z,101180.47
2023-05-20T13:06:14.105Z,101180.84
2023-05-20T13:08:42.264Z,101183.06
2023-05-20T13:11:10.623Z,101184.91
2023-05-20T13:13:38.686Z,101183.97
2023-05-20T13:16:09.576Z,101184.34
2023-05-20T13:18:38.348Z,101176.13
2023-05-20T13:21:11.977Z,101191.38
2023-05-20T13:26:31.722Z,101197.69
2023-05-20T13:29:00.276Z,101188.66
2023-05-20T13:31:28.488Z,101190.38
2023-05-20T13:33:59.572Z,101192.84
2023-05-20T13:36:27.985Z,101182.06
2023-05-20T13:38:56.055Z,101171.75
2023-05-20T13:41:26.878Z,101183.97
2023-05-20T13:43:55.475Z,101190.31
2023-05-20T13:46:23.644Z,101194.31
2023-05-20T13:48:51.769Z,101203.63
2023-05-20T13:51:20.803Z,101192.69
2023-05-20T13:53:49.028Z,101210.41
2023-05-20T13:56:17.343Z,101214.41
2023-05-20T13:58:46.011Z,101202.09
2023-05-20T14:01:15.907Z,101215.72
2023-05-20T14:03:44.607Z,101215.56
2023-05-20T14:06:15.382Z,101209.81
2023-05-20T14:08:43.492Z,101216.78
2023-05-20T14:11:12.265Z,101215.69
2023-05-20T14:13:40.587Z,101216.31
2023-05-20T14:16:08.777Z,101225.44
2023-05-20T14:18:37.338Z,101215.09
2023-05-20T14:21:05.939Z,101212.22
2023-05-20T14:23:34.064Z,101213.66
2023-05-20T14:26:02.643Z,101211.12
2023-05-20T14:28:30.755Z,101206.69
2023-05-20T14:30:58.722Z,101200.91
2023-05-20T14:33:26.965Z,101203.06
2023-05-20T14:35:55.017Z,101195.81
2023-05-20T14:38:23.050Z,101195.12
2023-05-20T14:40:51.315Z,101201.81
2023-05-20T14:43:19.453Z,101203.88
2023-05-20T14:45:47.495Z,101199.94
2023-05-20T14:48:16.418Z,101202.31
2023-05-20T14:50:44.531Z,101204.34
2023-05-20T14:53:12.601Z,101201.03
2023-05-20T14:55:41.123Z,101199.59
2023-05-20T14:58:11.688Z,101204.16
2023-05-20T15:00:40.122Z,101198.69
2023-05-20T15:03:08.991Z,101198.12
2023-05-20T15:05:37.393Z,101204.59
2023-05-20T15:08:05.670Z,101199.09
2023-05-20T15:10:34.590Z,101209.75
2023-05-20T15:13:03.616Z,101203.44
2023-05-20T15:15:32.416Z,101198.97
2023-05-20T15:18:01.728Z,101202.94
2023-05-20T15:20:29.815Z,101202.78
2023-05-20T15:23:00.309Z,101196.91
2023-05-20T15:25:29.426Z,101196.41
2023-05-20T15:27:57.435Z,101194.13
2023-05-20T15:30:25.524Z,101195.12
2023-05-20T15:32:54.001Z,101194.13
2023-05-20T15:35:22.357Z,101193.16
2023-05-20T15:37:50.451Z,101193.94
2023-05-20T15:40:18.873Z,101193.94
2023-05-20T15:42:48.564Z,101195.84
2023-05-20T15:45:16.836Z,101202.31
2023-05-20T15:47:45.388Z,101203.25
2023-05-20T15:50:13.555Z,101195.84
2023-05-20T15:52:41.727Z,101190.56
2023-05-20T15:55:10.664Z,101201.22
2023-05-20T15:57:38.889Z,101195.09
2023-05-20T16:00:10.665Z,101203.50
2023-05-20T16:02:40.609Z,101201.09
2023-05-20T16:05:09.017Z,101196.56
2023-05-20T16:07:37.333Z,101194.66
2023-05-20T16:10:06.638Z,101191.72
2023-05-20T16:12:34.867Z,101196.56
2023-05-20T16:15:03.886Z,101197.78
2023-05-20T16:17:32.624Z,101194.81
2023-05-20T16:20:01.324Z,101191.72
2023-05-20T16:22:32.822Z,101188.94
2023-05-20T16:25:04.581Z,101190.84
2023-05-20T16:27:34.387Z,101191.62
2023-05-20T16:30:03.412Z,101197.00
2023-05-20T16:32:32.890Z,101193.28
2023-05-20T16:35:02.111Z,101192.94
2023-05-20T16:37:32.815Z,101197.19
2023-05-20T16:40:01.056Z,101190.66
2023-05-20T16:42:32.654Z,101184.97
2023-05-20T16:45:01.559Z,101192.38
2023-05-20T16:47:33.426Z,101188.12
2023-05-20T16:50:01.879Z,101195.03
2023-05-20T16:52:33.400Z,101187.00
2023-05-20T16:55:05.168Z,101187.03
2023-05-20T16:57:33.883Z,101201.22
2023-05-20T17:00:02.759Z,101200.28
2023-05-20T17:02:33.236Z,101195.53
2023-05-20T17:05:01.789Z,101195.44
2023-05-20T17:07:33.876Z,101198.41
2023-05-20T17:10:02.379Z,101194.06
2023-05-20T17:12:31.944Z,101193.97
2023-05-20T17:14:59.942Z,101195.69
2023-05-20T17:17:28.121Z,101192.06
2023-05-20T17:19:56.690Z,101193.41
2023-05-20T17:22:24.874Z,101188.78
2023-05-20T17:24:53.034Z,101190.13
2023-05-20T17:27:21.570Z,101196.13
2023-05-20T17:29:49.681Z,101192.81
2023-05-20T17:32:17.996Z,101189.31
2023-05-20T17:34:46.793Z,101166.09
2023-05-20T17:40:00.894Z,101184.31
2023-05-20T17:42:31.998Z,101180.00
2023-05-20T17:45:00.601Z,101191.62
2023-05-20T17:47:28.935Z,101191.72
2023-05-20T17:49:57.125Z,101190.94
2023-05-20T17:52:25.895Z,101195.97
2023-05-20T17:54:54.063Z,101202.87
2023-05-20T17:57:22.346Z,101196.97
2023-05-20T17:59:51.337Z,101197.34
2023-05-20T18:02:19.631Z,101190.47
2023-05-20T18:04:51.207Z,101209.75
2023-05-20T18:07:19.420Z,101203.37
2023-05-20T18:09:47.947Z,101200.78
2023-05-20T18:12:16.537Z,101202.13
2023-05-20T18:14:44.861Z,101200.97
2023-05-20T18:17:13.580Z,101195.41
2023-05-20T18:19:41.771Z,101188.56
2023-05-20T18:22:09.904Z,101194.13
2023-05-20T18:24:38.922Z,101183.09
2023-05-20T18:27:07.094Z,101184.41
2023-05-20T18:29:35.282Z,101195.38
2023-05-20T18:32:04.798Z,101188.00
2023-05-20T18:34:35.058Z,101185.59
2023-05-20T18:37:04.498Z,101188.56
2023-05-20T18:39:32.711Z,101186.63
2023-05-20T18:42:01.051Z,101181.97
2023-05-20T18:44:29.542Z,101180.19
2023-05-20T18:46:57.561Z,101180.19
2023-05-20T18:49:25.502Z,101172.75
2023-05-20T18:51:54.269Z,101175.59
2023-05-20T18:54:22.524Z,101167.12
2023-05-20T18:56:51.096Z,101171.53
2023-05-20T18:59:19.949Z,101169.84
2023-05-20T19:01:48.958Z,101169.56
2023-05-20T19:04:17.189Z,101169.84
2023-05-20T19:06:46.328Z,101170.09
2023-05-20T19:09:14.731Z,101171.66
2023-05-20T19:11:43.137Z,101165.78
2023-05-20T19:14:12.777Z,101156.72
2023-05-20T19:16:41.190Z,101157.81
2023-05-20T19:19:09.606Z,101159.41
2023-05-20T19:21:43.192Z,101153.06
2023-05-20T19:24:12.577Z,101156.06
2023-05-20T19:26:41.814Z,101150.44
2023-05-20T19:29:10.185Z,101154.94
2023-05-20T19:31:41.760Z,101149.88
2023-05-20T19:34:10.622Z,101145.31
2023-05-20T19:36:40.208Z,101143.44
2023-05-20T19:39:10.329Z,101139.41
2023-05-20T19:41:38.935Z,101144.16
2023-05-20T19:44:08.859Z,101133.56
2023-05-20T19:46:37.121Z,101138.00
2023-05-20T19:49:06.617Z,101138.66
2023-05-20T19:51:34.800Z,101141.69
2023-05-20T19:54:02.994Z,101132.06
2023-05-20T19:56:32.040Z,101133.31
2023-05-20T19:59:01.994Z,101136.84
2023-05-20T20:01:31.018Z,101133.66
2023-05-20T20:03:59.502Z,101126.50
2023-05-20T20:06:27.540Z,101137.31
2023-05-20T20:08:55.595Z,101132.75
2023-05-20T20:11:24.219Z,101128.69
2023-05-20T20:13:52.418Z,101119.62
2023-05-20T20:16:20.534Z,101108.44
2023-05-20T20:18:49.138Z,101115.56
2023-05-20T20:21:17.080Z,101110.47
2023-05-20T20:23:45.080Z,101102.94
2023-05-20T20:26:14.189Z,101102.75
2023-05-20T20:28:42.294Z,101099.81
2023-05-20T20:33:57.058Z,101097.09
2023-05-20T20:36:25.161Z,101093.09
2023-05-20T20:38:53.251Z,101086.53
2023-05-20T20:41:21.834Z,101086.41
2023-05-20T20:46:37.935Z,101083.28
2023-05-20T20:49:05.972Z,101080.87
2023-05-20T20:51:34.368Z,101079.75
2023-05-20T20:54:02.531Z,101075.34
2023-05-20T20:56:30.645Z,101082.59
2023-05-20T20:58:59.056Z,101081.50
2023-05-20T21:01:27.260Z,101074.91
2023-05-20T21:03:55.551Z,101078.84
2023-05-20T21:06:24.032Z,101070.34
2023-05-20T21:08:53.461Z,101065.72
2023-05-20T21:11:22.851Z,101063.66
2023-05-20T21:13:51.298Z,101064.91
2023-05-20T21:16:19.874Z,101063.87
2023-05-20T21:18:47.964Z,101067.06
2023-05-20T21:21:21.022Z,101061.03
2023-05-20T21:23:51.219Z,101059.78
2023-05-20T21:26:21.740Z,101069.38
2023-05-20T21:28:49.839Z,101053.75
2023-05-20T21:31:18.163Z,101048.72
2023-05-20T21:33:46.770Z,101057.31
2023-05-20T21:36:14.879Z,101049.41
2023-05-20T21:38:42.893Z,101047.41
2023-05-20T21:41:11.680Z,101046.78
2023-05-20T21:43:39.795Z,101048.28
2023-05-20T21:46:08.268Z,101050.22
2023-05-20T21:48:36.713Z,101042.69
2023-05-20T21:51:04.736Z,101045.03
2023-05-20T21:53:32.787Z,101042.91
2023-05-20T21:56:01.355Z,101040.13
2023-05-20T21:58:29.445Z,101040.22
2023-05-20T22:00:57.886Z,101040.25
2023-05-20T22:03:26.402Z,101033.47
2023-05-20T22:05:54.368Z,101034.88
2023-05-20T22:08:22.492Z,101032.00
2023-05-20T22:10:51.033Z,101033.59
2023-05-20T22:13:20.937Z,101026.63
2023-05-20T22:15:49.132Z,101023.91
2023-05-20T22:18:17.555Z,101027.94
2023-05-20T22:20:46.408Z,101021.25
2023-05-20T22:23:14.475Z,101017.72
2023-05-20T22:25:43.305Z,101015.81
2023-05-20T22:28:11.316Z,101013.47
2023-05-20T22:30:39.397Z,101014.62
2023-05-20T22:33:07.967Z,101015.50
2023-05-20T22:35:36.417Z,101011.16
2023-05-20T22:38:04.986Z,101012.09
2023-05-20T22:40:34.125Z,101005.25
2023-05-20T22:43:02.102Z,101015.88
2023-05-20T22:45:30.190Z,101007.03
2023-05-20T22:47:58.832Z,101006.56
2023-05-20T22:50:28.128Z,100998.50
2023-05-20T22:52:56.343Z,100995.59
2023-05-20T22:55:24.741Z,100994.09
2023-05-20T22:57:52.864Z,100976.44
2023-05-20T23:00:21.161Z,100986.56
2023-05-20T23:02:50.256Z,100989.28
2023-05-20T23:05:18.419Z,100985.53
2023-05-20T23:07:46.463Z,100986.47
2023-05-20T23:10:14.961Z,100974.66
2023-05-20T23:12:43.014Z,100977.16
2023-05-20T23:15:11.349Z,100976.03
2023-05-20T23:17:40.157Z,100984.38
2023-05-20T23:20:11.968Z,100978.06
2023-05-20T23:22:41.517Z,100976.50
2023-05-20T23:25:10.075Z,100975.22
2023-05-20T23:27:38.240Z,100972.94
2023-05-20T23:30:07.377Z,100974.53
2023-05-20T23:32:35.361Z,100969.84
2023-05-20T23:35:05.001Z,100973.13
2023-05-20T23:37:34.933Z,100972.31
2023-05-20T23:40:04.733Z,100965.56
2023-05-20T23:42:32.732Z,100964.06
2023-05-20T23:45:01.359Z,100967.69
2023-05-20T23:47:36.744Z,100963.94
2023-05-20T23:50:05.551Z,100963.09
2023-05-20T23:52:34.586Z,100964.69
2023-05-20T23:55:02.605Z,100961.44
2023-05-20T23:57:32.680Z,100967.91
